Time;durP1;ratioP1;P1;durP2;ratioP2;P2;SDS_P1;SDS_P2;PMS_P1;PMS_P2;Temp;Humidity;BMP_temperature;BMP_pressure;BME280_temperature;BME280_humidity;BME280_pressure;Samples;Min_cycle;Max_cycle;Signal;HPM_P1;HPM_P2
2022/04/22 00:02:22;;;;;;;;;;;17.00;48.10;;;;;;4975220;28;19914;-90
2022/04/22 00:04:48;;;;;;;;;;;17.00;48.20;;;;;;4976294;28;19926;-91
2022/04/22 00:07:13;;;;;;;;;;;17.00;48.30;;;;;;4959795;28;19965;-89
2022/04/22 00:09:39;;;;;;;;;;;17.00;48.40;;;;;;4975271;28;20278;-90
2022/04/22 00:12:05;;;;;;;;;;;17.00;48.40;;;;;;4976670;28;19914;-91
2022/04/22 00:14:31;;;;;;;;;;;17.00;48.30;;;;;;4952516;28;19985;-90
2022/04/22 00:16:56;;;;;;;;;;;17.00;48.40;;;;;;4951859;28;19953;-91
2022/04/22 00:19:22;;;;;;;;;;;17.00;48.50;;;;;;4957487;28;20398;-90
2022/04/22 00:21:47;;;;;;;;;;;17.00;48.60;;;;;;4969046;28;20636;-91
2022/04/22 00:24:15;;;;;;;;;;;17.00;48.80;;;;;;4977799;28;20140;-91
2022/04/22 00:26:40;;;;;;;;;;;16.90;48.80;;;;;;4952487;28;20005;-91
2022/04/22 00:29:06;;;;;;;;;;;16.90;48.90;;;;;;4954711;28;19961;-89
2022/04/22 00:31:31;;;;;;;;;;;16.90;49.00;;;;;;4974036;28;19922;-91
2022/04/22 00:33:57;;;;;;;;;;;16.80;49.00;;;;;;4973471;28;19922;-91
2022/04/22 00:36:23;;;;;;;;;;;16.80;49.00;;;;;;4974810;28;19937;-90
2022/04/22 00:38:48;;;;;;;;;;;16.80;49.00;;;;;;4974557;28;19918;-90
2022/04/22 00:41:14;;;;;;;;;;;16.80;49.00;;;;;;4967178;28;19915;-91
2022/04/22 00:43:41;;;;;;;;;;;16.80;49.20;;;;;;4969687;28;19918;-91
2022/04/22 00:46:06;;;;;;;;;;;16.80;49.30;;;;;;4957176;28;20330;-92
2022/04/22 00:48:32;;;;;;;;;;;16.80;49.30;;;;;;4977527;28;19961;-90
2022/04/22 00:50:57;;;;;;;;;;;16.80;49.30;;;;;;4955190;28;19914;-90
2022/04/22 00:53:25;;;;;;;;;;;16.80;49.40;;;;;;4977452;28;20005;-89
2022/04/22 00:55:50;;;;;;;;;;;16.80;49.40;;;;;;4975499;28;19965;-91
2022/04/22 00:58:16;;;;;;;;;;;16.80;49.50;;;;;;4974450;28;19953;-91
2022/04/22 01:00:41;;;;;;;;;;;16.80;49.50;;;;;;4976621;28;20322;-91
2022/04/22 01:03:07;;;;;;;;;;;16.80;49.70;;;;;;4974508;28;19918;-90
2022/04/22 01:11:02;;;;;;;;;;;16.80;50.10;;;;;;4976031;28;19964;-90
2022/04/22 01:13:28;;;;;;;;;;;16.80;50.20;;;;;;4975790;28;19918;-91
2022/04/22 01:15:53;;;;;;;;;;;16.70;50.30;;;;;;4975327;28;19922;-90
2022/04/22 01:18:19;;;;;;;;;;;16.70;50.30;;;;;;4974808;28;19918;-91
2022/04/22 01:20:44;;;;;;;;;;;16.80;50.30;;;;;;4948868;28;19922;-91
2022/04/22 01:23:10;;;;;;;;;;;16.70;50.40;;;;;;4974702;28;19944;-91
2022/04/22 01:25:35;;;;;;;;;;;16.70;50.50;;;;;;4970696;28;19960;-91
2022/04/22 01:28:01;;;;;;;;;;;16.70;50.60;;;;;;4951419;28;19957;-89
2022/04/22 01:30:26;;;;;;;;;;;16.70;50.80;;;;;;4961268;28;19929;-90
2022/04/22 01:32:54;;;;;;;;;;;16.70;50.90;;;;;;4971011;28;20005;-90
2022/04/22 01:35:20;;;;;;;;;;;16.70;51.10;;;;;;4960643;28;19930;-91
2022/04/22 01:37:46;;;;;;;;;;;16.70;51.10;;;;;;4963700;28;20017;-90
2022/04/22 01:40:11;;;;;;;;;;;16.70;51.00;;;;;;4972746;28;19946;-91
2022/04/22 01:42:37;;;;;;;;;;;16.70;51.10;;;;;;4959672;28;19953;-90
2022/04/22 01:45:03;;;;;;;;;;;16.70;51.20;;;;;;4980823;28;19907;-91
2022/04/22 01:47:29;;;;;;;;;;;16.70;51.20;;;;;;4977672;28;19921;-91
2022/04/22 01:49:57;;;;;;;;;;;16.60;51.30;;;;;;4976897;28;20282;-91
2022/04/22 01:52:23;;;;;;;;;;;16.60;51.30;;;;;;4986659;28;20355;-91
2022/04/22 01:54:52;;;;;;;;;;;16.60;51.40;;;;;;4978456;28;20252;-91
2022/04/22 01:57:18;;;;;;;;;;;16.50;51.60;;;;;;4971939;28;19961;-90
2022/04/22 01:59:44;;;;;;;;;;;16.50;51.60;;;;;;4971353;28;19926;-91
2022/04/22 02:02:10;;;;;;;;;;;16.50;51.70;;;;;;4977912;28;20318;-90
2022/04/22 02:04:35;;;;;;;;;;;16.40;51.70;;;;;;4956018;28;19964;-91
2022/04/22 02:07:01;;;;;;;;;;;16.40;51.70;;;;;;4962176;28;19925;-90
2022/04/22 02:09:28;;;;;;;;;;;16.30;51.70;;;;;;4978209;28;20009;-90
2022/04/22 02:11:53;;;;;;;;;;;16.30;51.80;;;;;;4947747;28;19915;-91
2022/04/22 02:14:19;;;;;;;;;;;16.20;52.10;;;;;;4952911;28;19969;-90
2022/04/22 02:16:44;;;;;;;;;;;16.20;52.20;;;;;;4972863;28;19949;-90
2022/04/22 02:19:10;;;;;;;;;;;16.20;52.20;;;;;;4961007;28;19922;-91
2022/04/22 02:21:35;;;;;;;;;;;16.20;52.20;;;;;;4981017;28;19921;-90
2022/04/22 02:24:01;;;;;;;;;;;16.20;52.20;;;;;;4977595;28;19918;-89
2022/04/22 02:26:26;;;;;;;;;;;16.20;52.20;;;;;;4968456;28;19922;-90
2022/04/22 02:28:52;;;;;;;;;;;16.20;52.20;;;;;;4970153;28;20339;-91
2022/04/22 02:31:18;;;;;;;;;;;16.20;52.10;;;;;;4972835;28;19914;-92
2022/04/22 02:33:44;;;;;;;;;;;16.20;52.30;;;;;;4978662;28;19968;-90
2022/04/22 02:36:10;;;;;;;;;;;16.20;52.40;;;;;;4978151;28;19918;-90
2022/04/22 02:38:35;;;;;;;;;;;16.20;52.40;;;;;;4979152;28;20393;-91
2022/04/22 02:46:29;;;;;;;;;;;16.10;52.50;;;;;;4979826;28;19925;-91
2022/04/22 02:48:56;;;;;;;;;;;16.00;52.70;;;;;;4979944;28;20390;-91
2022/04/22 02:51:21;;;;;;;;;;;15.90;52.80;;;;;;4979353;28;19918;-90
2022/04/22 02:53:47;;;;;;;;;;;15.80;52.90;;;;;;4979088;28;19918;-89
2022/04/22 02:56:12;;;;;;;;;;;15.80;53.10;;;;;;4970813;28;19981;-90
2022/04/22 02:58:39;;;;;;;;;;;15.80;53.10;;;;;;4953050;28;19949;-90
2022/04/22 03:01:04;;;;;;;;;;;15.80;53.20;;;;;;4976578;28;19925;-90
2022/04/22 03:03:32;;;;;;;;;;;15.70;53.20;;;;;;4965344;28;19915;-90
2022/04/22 03:05:58;;;;;;;;;;;15.60;53.30;;;;;;4983297;28;19929;-90
2022/04/22 03:08:23;;;;;;;;;;;15.60;53.30;;;;;;4959098;28;19918;-91
2022/04/22 03:10:51;;;;;;;;;;;15.50;53.40;;;;;;4969862;28;19925;-91
2022/04/22 03:13:16;;;;;;;;;;;15.50;53.40;;;;;;4961193;28;19918;-92
2022/04/22 03:15:42;;;;;;;;;;;15.50;53.50;;;;;;4977310;28;19945;-89
2022/04/22 03:18:08;;;;;;;;;;;15.50;53.50;;;;;;4977105;28;19929;-89
2022/04/22 03:20:33;;;;;;;;;;;15.50;53.50;;;;;;4959851;28;19914;-90
2022/04/22 03:22:59;;;;;;;;;;;15.40;53.50;;;;;;4978475;28;20258;-90
2022/04/22 03:25:24;;;;;;;;;;;15.40;53.50;;;;;;4977837;28;19918;-90
2022/04/22 03:27:51;;;;;;;;;;;15.40;53.60;;;;;;4974564;28;19918;-91
2022/04/22 03:30:17;;;;;;;;;;;15.40;53.50;;;;;;4958946;28;20318;-91
2022/04/22 03:32:42;;;;;;;;;;;15.30;53.50;;;;;;4971143;28;19922;-90
2022/04/22 03:35:08;;;;;;;;;;;15.30;53.40;;;;;;4956273;28;19953;-90
2022/04/22 03:37:34;;;;;;;;;;;15.20;53.50;;;;;;4975838;28;19926;-89
2022/04/22 03:39:59;;;;;;;;;;;15.10;53.50;;;;;;4977507;28;19921;-91
2022/04/22 03:42:25;;;;;;;;;;;15.00;53.70;;;;;;4979906;28;19914;-90
2022/04/22 03:44:50;;;;;;;;;;;14.90;53.90;;;;;;4976550;28;19914;-90
2022/04/22 03:47:16;;;;;;;;;;;14.80;53.90;;;;;;4962290;28;20023;-90
2022/04/22 03:49:41;;;;;;;;;;;14.80;54.00;;;;;;4960659;28;19925;-89
2022/04/22 03:52:07;;;;;;;;;;;14.70;54.00;;;;;;4955535;28;19918;-89
2022/04/22 03:54:32;;;;;;;;;;;14.60;54.10;;;;;;4961074;28;19918;-90
2022/04/22 03:59:42;;;;;;;;;;;14.50;54.50;;;;;;4977737;28;19925;-90
2022/04/22 04:02:07;;;;;;;;;;;14.50;54.60;;;;;;4961692;28;19910;-90
2022/04/22 04:04:33;;;;;;;;;;;14.60;54.70;;;;;;4976231;28;19918;-89
2022/04/22 04:06:59;;;;;;;;;;;14.60;54.80;;;;;;4975513;28;20001;-92
2022/04/22 04:17:38;;;;;;;;;;;14.70;55.20;;;;;;4958243;29;19965;-90
2022/04/22 04:25:33;;;;;;;;;;;14.70;55.10;;;;;;4957530;29;19938;-89
2022/04/22 04:27:59;;;;;;;;;;;14.70;55.20;;;;;;4957931;28;19918;-89
2022/04/22 04:30:25;;;;;;;;;;;14.70;55.10;;;;;;4975827;28;19914;-90
2022/04/22 04:32:50;;;;;;;;;;;14.70;55.10;;;;;;4979368;28;20388;-90
2022/04/22 04:35:16;;;;;;;;;;;14.70;55.10;;;;;;4977048;28;19925;-92
2022/04/22 04:37:42;;;;;;;;;;;14.70;55.10;;;;;;4979582;28;19918;-91
2022/04/22 04:40:08;;;;;;;;;;;14.80;55.00;;;;;;4960955;28;19918;-89
2022/04/22 04:42:33;;;;;;;;;;;14.80;55.00;;;;;;4960659;28;19965;-90
2022/04/22 04:44:59;;;;;;;;;;;14.90;55.10;;;;;;4960674;28;19918;-92
2022/04/22 04:47:24;;;;;;;;;;;15.00;55.20;;;;;;4978088;28;19969;-91
2022/04/22 04:49:50;;;;;;;;;;;15.00;55.30;;;;;;4961027;28;19921;-92
2022/04/22 04:52:15;;;;;;;;;;;15.00;55.40;;;;;;4977629;28;19915;-92
2022/04/22 04:54:40;;;;;;;;;;;15.10;55.40;;;;;;4959798;28;19918;-91
2022/04/22 04:57:06;;;;;;;;;;;15.20;55.40;;;;;;4955970;28;19922;-90
2022/04/22 04:59:32;;;;;;;;;;;15.20;55.30;;;;;;4974763;28;19965;-90
2022/04/22 05:01:57;;;;;;;;;;;15.30;55.10;;;;;;4960006;28;19914;-90
2022/04/22 05:04:23;;;;;;;;;;;15.40;54.90;;;;;;4976947;28;19918;-91
2022/04/22 05:06:49;;;;;;;;;;;15.50;54.70;;;;;;4960462;28;19914;-91
2022/04/22 05:09:14;;;;;;;;;;;15.50;54.60;;;;;;4980338;28;19928;-90
2022/04/22 05:11:39;;;;;;;;;;;15.60;54.50;;;;;;4962701;28;19974;-91
2022/04/22 05:14:07;;;;;;;;;;;15.60;54.50;;;;;;4962702;28;19933;-91
2022/04/22 05:16:32;;;;;;;;;;;15.70;54.40;;;;;;4962368;28;19925;-90
2022/04/22 05:18:58;;;;;;;;;;;15.80;54.20;;;;;;4981054;28;20282;-91
2022/04/22 05:21:23;;;;;;;;;;;15.90;54.10;;;;;;4980644;28;19914;-91
2022/04/22 05:23:49;;;;;;;;;;;15.90;54.00;;;;;;4962765;28;19922;-89
2022/04/22 05:26:14;;;;;;;;;;;16.00;53.80;;;;;;4961711;28;20004;-91
2022/04/22 05:28:41;;;;;;;;;;;16.00;53.70;;;;;;4963054;28;19918;-89
2022/04/22 05:33:51;;;;;;;;;;;16.20;53.50;;;;;;4981245;28;19969;-91
2022/04/22 05:36:18;;;;;;;;;;;16.30;53.40;;;;;;4962769;28;19922;-91
2022/04/22 05:38:52;;;;;;;;;;;16.40;53.20;;;;;;4962203;28;19945;-90
2022/04/22 05:41:18;;;;;;;;;;;16.40;53.10;;;;;;4961107;28;19953;-91
2022/04/22 05:43:44;;;;;;;;;;;16.50;52.90;;;;;;4978084;28;19941;-90
2022/04/22 05:46:09;;;;;;;;;;;16.60;52.90;;;;;;4977748;28;19950;-90
2022/04/22 05:48:35;;;;;;;;;;;16.70;52.70;;;;;;4971472;28;19918;-91
2022/04/22 05:51:01;;;;;;;;;;;16.70;52.40;;;;;;4969229;28;19914;-89
2022/04/22 05:53:26;;;;;;;;;;;16.80;52.40;;;;;;4982644;28;19922;-91
2022/04/22 05:55:52;;;;;;;;;;;16.80;52.30;;;;;;4978390;28;19922;-92
2022/04/22 05:58:17;;;;;;;;;;;16.80;52.20;;;;;;4965391;28;19929;-92
2022/04/22 06:00:43;;;;;;;;;;;16.90;52.20;;;;;;4972403;28;19922;-91
2022/04/22 06:03:08;;;;;;;;;;;16.90;52.10;;;;;;4976536;28;19922;-90
2022/04/22 06:05:34;;;;;;;;;;;16.90;52.00;;;;;;4961257;28;19926;-92
2022/04/22 06:10:49;;;;;;;;;;;17.00;51.90;;;;;;4975808;28;19925;-90
2022/04/22 06:13:15;;;;;;;;;;;16.90;51.90;;;;;;4977334;28;19918;-91
2022/04/22 06:15:40;;;;;;;;;;;16.90;51.70;;;;;;4955839;28;19922;-92
2022/04/22 06:18:06;;;;;;;;;;;16.80;51.60;;;;;;4974076;28;19925;-92
2022/04/22 06:20:31;;;;;;;;;;;16.80;51.60;;;;;;4980698;28;20382;-92
2022/04/22 06:22:57;;;;;;;;;;;16.80;51.70;;;;;;4964970;28;19922;-92
2022/04/22 06:25:23;;;;;;;;;;;16.70;51.50;;;;;;4962683;28;19937;-91
2022/04/22 06:27:49;;;;;;;;;;;16.70;51.50;;;;;;4961971;28;20322;-92
2022/04/22 06:30:16;;;;;;;;;;;16.80;51.50;;;;;;4961947;28;19921;-92
2022/04/22 06:32:43;;;;;;;;;;;16.80;51.40;;;;;;4961757;28;19914;-91
2022/04/22 06:35:09;;;;;;;;;;;16.80;51.30;;;;;;4962423;28;19914;-91
2022/04/22 06:37:36;;;;;;;;;;;16.80;51.10;;;;;;4983647;28;20026;-92
2022/04/22 06:45:46;;;;;;;;;;;16.80;50.70;;;;;;4978812;28;19937;-92
2022/04/22 06:48:16;;;;;;;;;;;16.80;50.60;;;;;;4959823;28;19914;-92
2022/04/22 06:50:42;;;;;;;;;;;16.80;50.60;;;;;;4976418;28;19930;-93
2022/04/22 06:53:09;;;;;;;;;;;16.90;50.50;;;;;;4959906;28;19977;-94
2022/04/22 06:55:35;;;;;;;;;;;17.00;50.20;;;;;;4961042;28;19918;-91
2022/04/22 06:58:00;;;;;;;;;;;17.10;50.00;;;;;;4961846;28;20064;-90
2022/04/22 07:00:26;;;;;;;;;;;17.20;49.80;;;;;;4961052;28;19922;-91
2022/04/22 07:02:52;;;;;;;;;;;17.30;49.70;;;;;;4963663;28;19910;-91
2022/04/22 07:05:18;;;;;;;;;;;17.40;49.30;;;;;;4964778;28;19926;-91
2022/04/22 07:07:43;;;;;;;;;;;17.50;48.90;;;;;;4977980;28;20061;-91
2022/04/22 07:10:09;;;;;;;;;;;17.50;48.50;;;;;;4960279;28;19950;-91
2022/04/22 07:12:34;;;;;;;;;;;17.70;48.40;;;;;;4980792;28;19972;-91
2022/04/22 07:15:06;;;;;;;;;;;17.80;48.50;;;;;;4978877;28;19939;-91
2022/04/22 07:20:12;;;;;;;;;;;18.10;48.30;;;;;;5111548;23;19930;-92
2022/04/22 07:22:38;;;;;;;;;;;18.20;48.10;;;;;;4993193;28;19921;-91
2022/04/22 07:25:05;;;;;;;;;;;18.30;47.70;;;;;;4995792;28;19914;-91
2022/04/22 07:27:32;;;;;;;;;;;18.50;47.30;;;;;;4978253;28;19941;-91
2022/04/22 07:29:58;;;;;;;;;;;18.70;47.20;;;;;;4995380;28;19917;-91
2022/04/22 07:32:24;;;;;;;;;;;18.80;46.70;;;;;;4980558;28;19922;-92
2022/04/22 07:34:50;;;;;;;;;;;19.00;46.60;;;;;;4997621;28;20341;-91
2022/04/22 07:37:15;;;;;;;;;;;19.20;46.30;;;;;;4994210;28;20453;-91
2022/04/22 07:39:41;;;;;;;;;;;19.40;45.80;;;;;;4976386;28;20588;-92
2022/04/22 07:42:07;;;;;;;;;;;19.50;45.40;;;;;;4978539;28;19922;-90
2022/04/22 07:47:20;;;;;;;;;;;19.70;44.70;;;;;;4991759;28;19940;-91
2022/04/22 07:49:46;;;;;;;;;;;19.80;44.60;;;;;;4996147;28;19918;-90
2022/04/22 07:52:11;;;;;;;;;;;19.80;44.00;;;;;;4984254;28;19917;-91
2022/04/22 07:54:37;;;;;;;;;;;20.00;43.80;;;;;;4995681;28;20032;-91
2022/04/22 07:57:03;;;;;;;;;;;20.30;43.70;;;;;;4995963;28;19918;-92
2022/04/22 07:59:30;;;;;;;;;;;20.50;42.70;;;;;;4993787;28;19944;-92
2022/04/22 08:01:58;;;;;;;;;;;20.60;41.60;;;;;;4979305;28;19914;-92
2022/04/22 08:04:24;;;;;;;;;;;20.70;41.10;;;;;;4977682;28;19929;-90
2022/04/22 08:06:50;;;;;;;;;;;20.80;41.30;;;;;;4995059;28;20411;-91
2022/04/22 08:09:15;;;;;;;;;;;20.90;41.40;;;;;;4977725;28;19961;-91
2022/04/22 08:11:43;;;;;;;;;;;21.10;40.90;;;;;;4986421;28;19914;-91
2022/04/22 08:14:11;;;;;;;;;;;21.20;40.60;;;;;;4994433;28;20421;-92
2022/04/22 08:16:37;;;;;;;;;;;21.20;39.90;;;;;;4985219;28;20033;-91
2022/04/22 08:19:02;;;;;;;;;;;21.30;39.80;;;;;;4966229;28;19954;-92
2022/04/22 08:21:35;;;;;;;;;;;21.30;39.60;;;;;;4987583;28;19929;-91
2022/04/22 08:24:01;;;;;;;;;;;21.30;39.20;;;;;;4975171;28;20605;-90
2022/04/22 08:26:28;;;;;;;;;;;21.40;38.90;;;;;;4991852;28;19922;-91
2022/04/22 08:28:54;;;;;;;;;;;21.40;38.70;;;;;;4968287;28;19921;-91
2022/04/22 08:31:19;;;;;;;;;;;21.60;38.80;;;;;;4967502;28;19921;-91
2022/04/22 08:33:47;;;;;;;;;;;21.90;38.30;;;;;;4969378;28;19925;-91
2022/04/22 08:36:12;;;;;;;;;;;22.00;37.60;;;;;;4990384;28;19922;-93
2022/04/22 08:38:38;;;;;;;;;;;22.20;37.60;;;;;;4975135;28;19925;-91
2022/04/22 08:41:04;;;;;;;;;;;22.30;37.60;;;;;;4980207;28;20004;-91
2022/04/22 08:43:31;;;;;;;;;;;22.50;37.20;;;;;;4990186;28;19937;-90
2022/04/22 08:45:56;;;;;;;;;;;22.80;37.20;;;;;;4976623;28;19957;-91
2022/04/22 08:51:08;;;;;;;;;;;23.80;35.50;;;;;;4992216;28;19968;-93
2022/04/22 08:53:34;;;;;;;;;;;24.30;34.50;;;;;;4985425;28;20285;-92
2022/04/22 08:56:01;;;;;;;;;;;24.90;33.40;;;;;;4980773;28;19926;-92
2022/04/22 08:58:31;;;;;;;;;;;25.40;32.80;;;;;;4980716;28;19973;-91
2022/04/22 09:00:57;;;;;;;;;;;25.80;32.00;;;;;;4971237;28;19922;-93
2022/04/22 09:03:25;;;;;;;;;;;25.80;30.90;;;;;;4981857;28;19975;-92
2022/04/22 09:05:50;;;;;;;;;;;25.80;30.80;;;;;;4965388;28;19976;-90
2022/04/22 09:08:16;;;;;;;;;;;25.70;30.80;;;;;;5000811;28;19934;-92
2022/04/22 09:10:42;;;;;;;;;;;25.60;31.20;;;;;;4973064;28;19917;-92
2022/04/22 09:13:10;;;;;;;;;;;25.50;31.00;;;;;;4998886;28;19901;-92
2022/04/22 09:15:38;;;;;;;;;;;25.30;31.00;;;;;;4996452;28;19922;-92
2022/04/22 09:18:12;;;;;;;;;;;25.20;30.70;;;;;;4984409;28;19940;-90
2022/04/22 09:20:38;;;;;;;;;;;25.00;31.20;;;;;;4972301;28;20269;-92
2022/04/22 09:23:20;;;;;;;;;;;25.00;31.50;;;;;;4988612;28;19918;-93
2022/04/22 09:25:46;;;;;;;;;;;25.10;31.50;;;;;;4987778;28;20006;-91
2022/04/22 09:28:11;;;;;;;;;;;25.00;31.00;;;;;;4994932;28;20362;-91
2022/04/22 09:30:37;;;;;;;;;;;24.80;31.20;;;;;;4990801;28;19922;-91
2022/04/22 09:33:02;;;;;;;;;;;24.80;31.40;;;;;;4995989;28;19917;-92
2022/04/22 09:35:29;;;;;;;;;;;24.60;31.30;;;;;;4990394;28;19913;-92
2022/04/22 09:43:34;;;;;;;;;;;24.80;31.20;;;;;;4995011;28;19925;-91
2022/04/22 09:45:59;;;;;;;;;;;25.10;31.30;;;;;;4971675;28;19914;-93
2022/04/22 09:48:25;;;;;;;;;;;25.50;31.00;;;;;;4983266;28;20365;-92
2022/04/22 09:50:54;;;;;;;;;;;25.80;30.20;;;;;;5000119;28;19913;-91
2022/04/22 09:53:32;;;;;;;;;;;26.20;29.60;;;;;;4991719;28;19924;-92
2022/04/22 09:55:58;;;;;;;;;;;26.20;29.40;;;;;;4966518;28;19929;-91
2022/04/22 09:58:27;;;;;;;;;;;26.30;29.20;;;;;;4981083;28;19922;-91
2022/04/22 10:00:54;;;;;;;;;;;26.20;28.80;;;;;;4968249;28;19936;-91
2022/04/22 10:03:20;;;;;;;;;;;25.90;29.20;;;;;;4970964;28;19921;-91
2022/04/22 10:05:48;;;;;;;;;;;25.60;29.40;;;;;;4976817;28;19926;-91
2022/04/22 10:08:16;;;;;;;;;;;25.40;29.90;;;;;;4980809;28;19920;-91
2022/04/22 10:10:42;;;;;;;;;;;25.20;30.10;;;;;;4984727;28;19929;-91
2022/04/22 10:13:11;;;;;;;;;;;25.10;30.40;;;;;;4987414;28;19910;-92
2022/04/22 10:15:39;;;;;;;;;;;25.10;30.40;;;;;;4976804;28;19964;-91
2022/04/22 10:18:07;;;;;;;;;;;25.30;30.50;;;;;;4977777;28;19922;-91
2022/04/22 10:20:33;;;;;;;;;;;25.60;30.30;;;;;;4993486;28;19914;-91
2022/04/22 10:22:58;;;;;;;;;;;25.60;29.90;;;;;;4980094;28;19918;-93
2022/04/22 10:25:24;;;;;;;;;;;25.60;30.20;;;;;;4989385;28;19918;-91
2022/04/22 10:27:51;;;;;;;;;;;25.90;30.20;;;;;;4984931;28;19924;-91
2022/04/22 10:30:16;;;;;;;;;;;26.00;29.70;;;;;;4970238;28;19914;-92
2022/04/22 10:32:45;;;;;;;;;;;25.90;29.40;;;;;;4986097;28;19973;-91
2022/04/22 10:35:12;;;;;;;;;;;26.10;29.40;;;;;;4968950;28;19910;-91
2022/04/22 10:37:44;;;;;;;;;;;26.10;29.30;;;;;;4987252;28;19997;-91
2022/04/22 10:40:19;;;;;;;;;;;26.00;29.30;;;;;;4972382;28;19921;-92
2022/04/22 10:42:45;;;;;;;;;;;25.80;29.40;;;;;;4987227;28;19922;-91
2022/04/22 10:47:56;;;;;;;;;;;25.10;30.10;;;;;;4985890;28;19932;-93
2022/04/22 10:53:02;;;;;;;;;;;24.60;30.70;;;;;;4983307;28;20053;-91
2022/04/22 10:55:28;;;;;;;;;;;24.40;31.20;;;;;;4975550;28;19918;-92
2022/04/22 10:58:19;;;;;;;;;;;24.20;31.50;;;;;;4990275;28;20014;-90
2022/04/22 11:00:46;;;;;;;;;;;23.90;32.00;;;;;;4957090;28;19918;-92
2022/04/22 11:03:16;;;;;;;;;;;23.80;32.20;;;;;;4987804;28;20009;-91
2022/04/22 11:05:46;;;;;;;;;;;23.50;32.50;;;;;;4971345;28;19917;-91
2022/04/22 11:08:30;;;;;;;;;;;23.30;33.10;;;;;;4988854;28;19918;-91
2022/04/22 11:10:58;;;;;;;;;;;23.20;33.30;;;;;;4991891;28;20373;-90
2022/04/22 11:13:28;;;;;;;;;;;23.20;33.60;;;;;;4995396;28;20342;-91
2022/04/22 11:16:12;;;;;;;;;;;23.20;33.60;;;;;;4990220;28;19918;-91
2022/04/22 11:18:41;;;;;;;;;;;23.10;33.70;;;;;;4989319;28;20373;-91
2022/04/22 11:21:30;;;;;;;;;;;23.00;33.80;;;;;;4989155;28;19922;-91
2022/04/22 11:23:56;;;;;;;;;;;23.00;34.00;;;;;;4983806;28;19910;-91
2022/04/22 11:26:21;;;;;;;;;;;22.90;34.00;;;;;;4965763;28;19921;-92
2022/04/22 11:28:47;;;;;;;;;;;22.90;34.10;;;;;;4989769;28;19925;-92
2022/04/22 11:31:13;;;;;;;;;;;22.90;34.20;;;;;;4983225;28;19914;-92
2022/04/22 11:33:45;;;;;;;;;;;22.80;34.00;;;;;;4967885;28;20005;-92
2022/04/22 11:36:11;;;;;;;;;;;22.70;33.80;;;;;;4963890;28;19961;-91
2022/04/22 11:38:50;;;;;;;;;;;22.50;34.00;;;;;;4964651;28;19949;-92
2022/04/22 11:41:16;;;;;;;;;;;22.30;34.20;;;;;;4967780;28;19941;-92
2022/04/22 11:43:43;;;;;;;;;;;22.10;34.40;;;;;;4965114;28;19918;-91
2022/04/22 11:46:10;;;;;;;;;;;22.00;34.60;;;;;;4965154;28;19918;-90
2022/04/22 11:48:43;;;;;;;;;;;21.90;34.60;;;;;;4969734;28;20434;-92
2022/04/22 11:51:09;;;;;;;;;;;21.80;34.70;;;;;;4976653;28;19918;-91
2022/04/22 11:53:34;;;;;;;;;;;21.90;34.70;;;;;;4968065;28;20418;-90
2022/04/22 11:56:00;;;;;;;;;;;21.90;34.90;;;;;;4979828;28;20106;-89
2022/04/22 11:58:29;;;;;;;;;;;21.90;35.10;;;;;;4987643;28;19950;-91
2022/04/22 12:06:23;;;;;;;;;;;22.40;35.00;;;;;;4981259;28;19925;-91
2022/04/22 12:09:03;;;;;;;;;;;22.80;34.30;;;;;;4943469;29;20290;-91
2022/04/22 12:11:28;;;;;;;;;;;22.90;33.70;;;;;;4967940;28;19918;-91
2022/04/22 12:13:54;;;;;;;;;;;23.00;33.60;;;;;;4988161;28;19920;-91
2022/04/22 12:16:20;;;;;;;;;;;22.90;33.70;;;;;;4988066;28;19918;-92
2022/04/22 12:18:50;;;;;;;;;;;22.90;33.70;;;;;;4977710;28;20335;-91
2022/04/22 12:21:19;;;;;;;;;;;22.90;33.30;;;;;;4983355;28;19918;-90
2022/04/22 12:23:45;;;;;;;;;;;22.90;33.40;;;;;;4979833;28;19918;-91
2022/04/22 12:26:21;;;;;;;;;;;23.30;33.20;;;;;;4973062;28;19914;-90
2022/04/22 12:29:05;;;;;;;;;;;23.60;32.90;;;;;;4971753;28;20390;-90
2022/04/22 12:31:31;;;;;;;;;;;24.00;32.40;;;;;;4962855;28;19919;-91
2022/04/22 12:34:00;;;;;;;;;;;24.30;31.20;;;;;;4971380;28;19987;-91
2022/04/22 12:36:26;;;;;;;;;;;24.20;31.40;;;;;;4984686;28;19918;-93
2022/04/22 12:38:52;;;;;;;;;;;24.00;31.50;;;;;;4967039;28;20317;-91
2022/04/22 12:41:18;;;;;;;;;;;23.90;31.70;;;;;;4985980;28;20017;-90
2022/04/22 12:43:47;;;;;;;;;;;23.70;31.70;;;;;;4992019;28;19918;-91
2022/04/22 12:54:33;;;;;;;;;;;24.20;31.90;;;;;;4985232;28;20441;-92
2022/04/22 12:56:58;;;;;;;;;;;24.80;30.80;;;;;;4981904;28;20033;-92
2022/04/22 12:59:38;;;;;;;;;;;24.90;30.30;;;;;;4985356;28;19957;-91
2022/04/22 13:02:07;;;;;;;;;;;24.50;30.20;;;;;;4988637;28;19914;-90
2022/04/22 13:04:48;;;;;;;;;;;24.00;30.90;;;;;;4983008;28;19914;-93
2022/04/22 13:07:13;;;;;;;;;;;23.80;31.10;;;;;;4983335;28;19918;-91
2022/04/22 13:12:04;;;;;;;;;;;23.40;31.70;;;;;;4989872;28;19921;-92
2022/04/22 13:14:29;;;;;;;;;;;23.20;32.10;;;;;;4988254;28;19920;-91
2022/04/22 13:16:55;;;;;;;;;;;23.10;32.30;;;;;;4973124;28;19924;-91
2022/04/22 13:19:21;;;;;;;;;;;23.00;32.50;;;;;;4984463;28;19933;-92
2022/04/22 13:21:46;;;;;;;;;;;22.90;32.70;;;;;;4987829;28;19964;-91
2022/04/22 13:24:12;;;;;;;;;;;22.90;32.50;;;;;;4988658;28;19914;-92
2022/04/22 13:26:38;;;;;;;;;;;22.80;32.40;;;;;;4988864;28;19918;-92
2022/04/22 13:29:05;;;;;;;;;;;22.60;32.80;;;;;;4986692;28;20390;-91
2022/04/22 13:31:31;;;;;;;;;;;22.60;33.00;;;;;;4955244;28;19957;-91
2022/04/22 13:33:57;;;;;;;;;;;22.70;33.10;;;;;;4966888;28;20393;-91
2022/04/22 13:36:22;;;;;;;;;;;22.80;33.00;;;;;;4972473;28;19918;-91
2022/04/22 13:38:50;;;;;;;;;;;22.90;33.00;;;;;;4994387;28;19957;-92
2022/04/22 13:41:15;;;;;;;;;;;23.00;32.90;;;;;;4994432;28;19917;-92
2022/04/22 13:43:43;;;;;;;;;;;23.10;33.00;;;;;;4969545;28;20029;-90
2022/04/22 13:54:21;;;;;;;;;;;23.30;32.60;;;;;;4990275;28;20426;-91
2022/04/22 13:56:48;;;;;;;;;;;23.30;32.30;;;;;;4957813;28;19946;-91
2022/04/22 13:59:13;;;;;;;;;;;23.10;32.50;;;;;;4974139;28;19941;-90
2022/04/22 14:01:39;;;;;;;;;;;23.20;32.70;;;;;;4964387;28;19937;-91
2022/04/22 14:04:05;;;;;;;;;;;23.10;32.90;;;;;;4963735;28;20345;-92
2022/04/22 14:06:30;;;;;;;;;;;22.90;32.80;;;;;;4963883;28;19914;-92
2022/04/22 14:08:56;;;;;;;;;;;22.90;32.90;;;;;;4963637;28;19929;-92
2022/04/22 14:11:21;;;;;;;;;;;22.80;32.90;;;;;;4974920;28;20354;-92
2022/04/22 14:13:47;;;;;;;;;;;22.80;32.90;;;;;;4962034;29;20022;-91
2022/04/22 14:16:12;;;;;;;;;;;22.70;33.40;;;;;;4960334;29;19927;-92
2022/04/22 14:18:38;;;;;;;;;;;22.70;33.00;;;;;;4961085;29;19918;-89
2022/04/22 14:21:05;;;;;;;;;;;22.30;33.50;;;;;;4944309;29;19919;-90
2022/04/22 14:23:30;;;;;;;;;;;22.20;33.90;;;;;;4945151;29;19954;-91
2022/04/22 14:25:56;;;;;;;;;;;22.10;34.40;;;;;;4961898;29;19933;-90
2022/04/22 14:28:25;;;;;;;;;;;22.10;34.60;;;;;;4961952;29;20386;-91
2022/04/22 14:30:51;;;;;;;;;;;22.10;34.40;;;;;;4944439;29;19918;-91
2022/04/22 14:33:17;;;;;;;;;;;22.10;34.30;;;;;;4961217;29;19922;-92
2022/04/22 14:35:43;;;;;;;;;;;22.00;34.50;;;;;;4944613;29;19933;-91
2022/04/22 14:38:09;;;;;;;;;;;22.10;34.90;;;;;;4955898;29;19915;-92
2022/04/22 14:40:34;;;;;;;;;;;22.30;34.90;;;;;;4960013;28;20625;-92
2022/04/22 14:43:01;;;;;;;;;;;22.30;34.50;;;;;;4960841;29;19919;-91
2022/04/22 14:45:28;;;;;;;;;;;22.40;34.50;;;;;;4943882;29;19918;-92
2022/04/22 14:47:55;;;;;;;;;;;22.30;34.60;;;;;;4961944;29;20379;-92
2022/04/22 14:50:21;;;;;;;;;;;22.40;34.70;;;;;;4944307;29;19925;-93
2022/04/22 14:52:48;;;;;;;;;;;22.40;34.60;;;;;;4944047;29;19914;-92
2022/04/22 14:55:13;;;;;;;;;;;22.50;34.50;;;;;;4942601;29;20001;-91
2022/04/22 14:57:39;;;;;;;;;;;22.40;34.60;;;;;;4959918;29;19981;-91
2022/04/22 15:00:08;;;;;;;;;;;22.30;34.50;;;;;;4942492;29;19925;-91
2022/04/22 15:02:33;;;;;;;;;;;22.30;34.60;;;;;;4943172;29;19925;-91
2022/04/22 15:04:59;;;;;;;;;;;22.10;34.80;;;;;;4960455;29;19922;-91
2022/04/22 15:07:29;;;;;;;;;;;22.10;35.00;;;;;;4960622;29;19915;-92
2022/04/22 15:09:55;;;;;;;;;;;22.10;35.20;;;;;;4944146;29;19969;-92
2022/04/22 15:12:24;;;;;;;;;;;22.20;35.10;;;;;;4943890;29;19918;-92
2022/04/22 15:14:52;;;;;;;;;;;22.20;35.10;;;;;;4962306;28;19923;-92
2022/04/22 15:24:09;;;;;;;;;;;22.20;35.10;;;;;;4962756;28;19952;-92
2022/04/22 15:26:02;;;;;;;;;;;22.30;35.40;;;;;;4942181;28;20828;-90
2022/04/22 15:28:28;;;;;;;;;;;22.30;35.00;;;;;;4961618;28;20013;-92
2022/04/22 15:31:03;;;;;;;;;;;22.40;34.70;;;;;;4963538;28;19988;-91
2022/04/22 15:33:35;;;;;;;;;;;22.40;34.90;;;;;;4962267;28;19918;-92
2022/04/22 15:36:01;;;;;;;;;;;22.40;34.90;;;;;;4958075;28;19929;-91
2022/04/22 15:38:45;;;;;;;;;;;22.40;34.80;;;;;;4970456;28;19926;-91
2022/04/22 15:41:12;;;;;;;;;;;22.30;34.80;;;;;;4957350;28;19922;-92
2022/04/22 15:43:39;;;;;;;;;;;22.30;35.00;;;;;;4956474;28;20048;-91